Hauptseite
METAR-TAF:

METAR-TAF

Flughäfen :

Flugplatz Schwäbisch Hall-Hessental (Adolf Würth Airport)

Schwäbisch Hall, Deutschland

Breite: 49-07-06N, Länge: 9-47-02E, Höhe: 398 m

Beobachtung

Neuester Wetterbericht von vor 34 Minuten, um 07:50 UTC
Wind 1 kt aus unterschiedlichen Richtungen
Temperatur 0°C
Luftfeuchtigkeit 100%
Luftdruck 1017 hPa
Sichtweite: 6000 m

METAR: EDTY 190750Z VRB01KT 6000 NSC 00/00 Q1017

Zeit: 09:24 (08:24 UTC)

Prognose

Neuester Wetterbericht von vor 2 Stunden und 56 Minuten, um 05:28 UTC
Gültige Prognose vom 19 um 06 UTC bis 19 um 15 UTC
Wind 3 kt aus Ost/Südost
Sichtweite 10 km oder mehr
keine Wolken unter 1500 m und keine Kumulonimbus oder Gewitterwolken

TAF: EDTY 190528Z 1906/1915 12003KT CAVOK

Wetterbeobachtungen und Prognosen von mehr als 4000 Flughäfen (METAR und TAF Bericht).

Die verfügbaren Stationen werden durch gelbe und rote Markierungen auf der Karte dargestellt.

Führen Sie die Maus auf sie, um den Namen der Station zu sehen.

Darauf klicken, um die Beobachtung von Wetterbeobachtungen und Prognosen zu sehen.

Um die Karte zu ändern : klicken Sie auf den grünen Tasten mit einem schwarzen Kreuz Zum Vergrößern, auf den grünen Button mit einem Gedankenstrich zu verkleinern, oder auf die grünen Pfeile für benachbarte Karten.


METAR-TAF: